sensor_id;sensor_type;location;lat;lon;timestamp;pressure;altitude;pressure_sealevel;temperature;humidity
76297;BME280;65104;52.994;6.552;2024-01-07T00:00:30;101954.81;;;-0.48;86.93
76297;BME280;65104;52.994;6.552;2024-01-07T00:02:57;101959.78;;;-0.53;86.85
76297;BME280;65104;52.994;6.552;2024-01-07T00:05:23;101971.06;;;-0.52;87.12
76297;BME280;65104;52.994;6.552;2024-01-07T00:07:51;101967.22;;;-0.59;86.84
76297;BME280;65104;52.994;6.552;2024-01-07T00:10:18;101968.19;;;-0.57;86.95
76297;BME280;65104;52.994;6.552;2024-01-07T00:12:45;101969.25;;;-0.53;87.04
76297;BME280;65104;52.994;6.552;2024-01-07T00:15:11;101971.78;;;-0.55;87.54
76297;BME280;65104;52.994;6.552;2024-01-07T00:17:38;101975.84;;;-0.60;87.22
76297;BME280;65104;52.994;6.552;2024-01-07T00:20:06;101967.84;;;-0.63;86.92
76297;BME280;65104;52.994;6.552;2024-01-07T00:22:33;101976.72;;;-0.59;87.49
76297;BME280;65104;52.994;6.552;2024-01-07T00:25:01;101971.44;;;-0.61;87.56
76297;BME280;65104;52.994;6.552;2024-01-07T00:27:28;101986.84;;;-0.64;87.53
76297;BME280;65104;52.994;6.552;2024-01-07T00:29:55;101990.16;;;-0.67;87.31
76297;BME280;65104;52.994;6.552;2024-01-07T00:32:22;101992.13;;;-0.62;87.72
76297;BME280;65104;52.994;6.552;2024-01-07T00:34:48;101992.03;;;-0.64;87.72
76297;BME280;65104;52.994;6.552;2024-01-07T00:37:15;101991.06;;;-0.66;86.77
76297;BME280;65104;52.994;6.552;2024-01-07T00:39:42;101993.66;;;-0.66;87.31
76297;BME280;65104;52.994;6.552;2024-01-07T00:42:12;101999.09;;;-0.61;86.94
76297;BME280;65104;52.994;6.552;2024-01-07T00:44:39;102003.72;;;-0.56;87.39
76297;BME280;65104;52.994;6.552;2024-01-07T00:47:05;101996.91;;;-0.54;85.90
76297;BME280;65104;52.994;6.552;2024-01-07T00:49:32;102002.84;;;-0.56;85.95
76297;BME280;65104;52.994;6.552;2024-01-07T00:51:59;102006.78;;;-0.63;85.42
76297;BME280;65104;52.994;6.552;2024-01-07T00:54:25;102005.16;;;-0.61;85.54
76297;BME280;65104;52.994;6.552;2024-01-07T00:56:52;102013.84;;;-0.60;85.33
76297;BME280;65104;52.994;6.552;2024-01-07T00:59:20;102002.56;;;-0.61;84.98
76297;BME280;65104;52.994;6.552;2024-01-07T01:01:46;102009.72;;;-0.57;84.89
76297;BME280;65104;52.994;6.552;2024-01-07T01:04:13;102009.84;;;-0.55;85.07
76297;BME280;65104;52.994;6.552;2024-01-07T01:06:40;102022.31;;;-0.48;85.20
76297;BME280;65104;52.994;6.552;2024-01-07T01:09:06;102017.84;;;-0.51;84.66
76297;BME280;65104;52.994;6.552;2024-01-07T01:11:33;102022.25;;;-0.50;84.57
76297;BME280;65104;52.994;6.552;2024-01-07T01:14:00;102027.44;;;-0.50;84.86
76297;BME280;65104;52.994;6.552;2024-01-07T01:16:28;102028.59;;;-0.45;84.61
76297;BME280;65104;52.994;6.552;2024-01-07T01:18:54;102027.19;;;-0.54;84.28
76297;BME280;65104;52.994;6.552;2024-01-07T01:21:21;102030.91;;;-0.49;83.76
76297;BME280;65104;52.994;6.552;2024-01-07T01:23:48;102033.41;;;-0.51;83.81
76297;BME280;65104;52.994;6.552;2024-01-07T01:26:15;102036.22;;;-0.48;83.54
76297;BME280;65104;52.994;6.552;2024-01-07T01:28:41;102035.94;;;-0.52;84.06
76297;BME280;65104;52.994;6.552;2024-01-07T01:31:12;102050.63;;;-0.53;84.35
76297;BME280;65104;52.994;6.552;2024-01-07T01:33:41;102039.69;;;-0.47;83.94
76297;BME280;65104;52.994;6.552;2024-01-07T01:36:08;102054.03;;;-0.54;83.89
76297;BME280;65104;52.994;6.552;2024-01-07T01:38:35;102050.81;;;-0.50;84.15
76297;BME280;65104;52.994;6.552;2024-01-07T01:41:01;102056.97;;;-0.48;84.51
76297;BME280;65104;52.994;6.552;2024-01-07T01:43:28;102065.75;;;-0.46;84.20
76297;BME280;65104;52.994;6.552;2024-01-07T01:45:56;102060.38;;;-0.49;84.13
76297;BME280;65104;52.994;6.552;2024-01-07T01:48:24;102075.78;;;-0.52;84.66
76297;BME280;65104;52.994;6.552;2024-01-07T01:50:52;102070.16;;;-0.59;84.67
76297;BME280;65104;52.994;6.552;2024-01-07T01:53:20;102074.94;;;-0.51;85.13
76297;BME280;65104;52.994;6.552;2024-01-07T01:55:47;102082.25;;;-0.60;84.95
76297;BME280;65104;52.994;6.552;2024-01-07T01:58:14;102081.06;;;-0.65;86.02
76297;BME280;65104;52.994;6.552;2024-01-07T02:00:41;102080.28;;;-0.64;84.69
76297;BME280;65104;52.994;6.552;2024-01-07T02:03:08;102088.06;;;-0.64;84.62
76297;BME280;65104;52.994;6.552;2024-01-07T02:05:35;102095.03;;;-0.63;85.02
76297;BME280;65104;52.994;6.552;2024-01-07T02:08:04;102088.06;;;-0.64;84.54
76297;BME280;65104;52.994;6.552;2024-01-07T02:10:32;102098.44;;;-0.64;84.27
76297;BME280;65104;52.994;6.552;2024-01-07T02:12:59;102094.97;;;-0.65;84.15
76297;BME280;65104;52.994;6.552;2024-01-07T02:15:26;102103.19;;;-0.57;84.38
76297;BME280;65104;52.994;6.552;2024-01-07T02:17:53;102101.03;;;-0.64;83.88
76297;BME280;65104;52.994;6.552;2024-01-07T02:20:19;102103.47;;;-0.67;84.31
76297;BME280;65104;52.994;6.552;2024-01-07T02:22:46;102104.97;;;-0.71;84.02
76297;BME280;65104;52.994;6.552;2024-01-07T02:25:14;102099.69;;;-0.72;84.33
76297;BME280;65104;52.994;6.552;2024-01-07T02:27:41;102103.09;;;-0.73;83.94
76297;BME280;65104;52.994;6.552;2024-01-07T02:30:08;102104.19;;;-0.70;84.46
76297;BME280;65104;52.994;6.552;2024-01-07T02:32:35;102099.69;;;-0.72;83.38
76297;BME280;65104;52.994;6.552;2024-01-07T02:35:03;102112.03;;;-0.68;83.53
76297;BME280;65104;52.994;6.552;2024-01-07T02:37:30;102106.84;;;-0.68;82.25
76297;BME280;65104;52.994;6.552;2024-01-07T02:39:57;102110.25;;;-0.69;82.82
76297;BME280;65104;52.994;6.552;2024-01-07T02:42:25;102111.97;;;-0.70;82.46
76297;BME280;65104;52.994;6.552;2024-01-07T02:44:52;102120.81;;;-0.66;82.10
76297;BME280;65104;52.994;6.552;2024-01-07T02:47:18;102124.50;;;-0.62;82.59
76297;BME280;65104;52.994;6.552;2024-01-07T02:49:45;102127.97;;;-0.62;83.18
76297;BME280;65104;52.994;6.552;2024-01-07T02:52:12;102122.59;;;-0.65;82.25
76297;BME280;65104;52.994;6.552;2024-01-07T02:54:38;102129.50;;;-0.66;81.65
76297;BME280;65104;52.994;6.552;2024-01-07T02:57:05;102140.31;;;-0.73;81.72
76297;BME280;65104;52.994;6.552;2024-01-07T02:59:33;102132.53;;;-0.73;81.59
76297;BME280;65104;52.994;6.552;2024-01-07T03:01:59;102139.44;;;-0.73;81.86
76297;BME280;65104;52.994;6.552;2024-01-07T03:04:26;102137.72;;;-0.73;81.91
76297;BME280;65104;52.994;6.552;2024-01-07T03:06:53;102143.13;;;-0.70;82.28
76297;BME280;65104;52.994;6.552;2024-01-07T03:09:19;102147.75;;;-0.64;82.60
76297;BME280;65104;52.994;6.552;2024-01-07T03:11:46;102136.38;;;-0.66;82.75
76297;BME280;65104;52.994;6.552;2024-01-07T03:14:13;102153.56;;;-0.68;82.34
76297;BME280;65104;52.994;6.552;2024-01-07T03:16:43;102149.53;;;-0.63;82.45
76297;BME280;65104;52.994;6.552;2024-01-07T03:19:10;102153.13;;;-0.61;82.22
76297;BME280;65104;52.994;6.552;2024-01-07T03:21:36;102160.56;;;-0.67;81.70
76297;BME280;65104;52.994;6.552;2024-01-07T03:24:03;102165.38;;;-0.73;81.80
76297;BME280;65104;52.994;6.552;2024-01-07T03:26:30;102171.28;;;-0.76;82.07
76297;BME280;65104;52.994;6.552;2024-01-07T03:28:58;102168.53;;;-0.79;82.21
76297;BME280;65104;52.994;6.552;2024-01-07T03:31:25;102167.16;;;-0.72;81.74
76297;BME280;65104;52.994;6.552;2024-01-07T03:33:53;102171.38;;;-0.74;81.79
76297;BME280;65104;52.994;6.552;2024-01-07T03:36:20;102183.53;;;-0.73;81.33
76297;BME280;65104;52.994;6.552;2024-01-07T03:38:47;102185.88;;;-0.78;81.16
76297;BME280;65104;52.994;6.552;2024-01-07T03:41:16;102187.47;;;-0.80;80.89
76297;BME280;65104;52.994;6.552;2024-01-07T03:43:43;102190.00;;;-0.81;80.19
76297;BME280;65104;52.994;6.552;2024-01-07T03:46:10;102189.88;;;-0.83;80.60
76297;BME280;65104;52.994;6.552;2024-01-07T03:48:37;102191.78;;;-0.80;80.28
76297;BME280;65104;52.994;6.552;2024-01-07T03:51:05;102191.22;;;-0.90;79.34
76297;BME280;65104;52.994;6.552;2024-01-07T03:53:32;102201.88;;;-0.85;79.89
76297;BME280;65104;52.994;6.552;2024-01-07T03:55:58;102194.81;;;-0.88;80.05
76297;BME280;65104;52.994;6.552;2024-01-07T03:58:25;102201.41;;;-0.93;80.27
76297;BME280;65104;52.994;6.552;2024-01-07T04:00:52;102199.81;;;-0.91;80.43
76297;BME280;65104;52.994;6.552;2024-01-07T04:03:18;102203.56;;;-0.86;80.28
76297;BME280;65104;52.994;6.552;2024-01-07T04:05:45;102210.81;;;-0.95;79.89
76297;BME280;65104;52.994;6.552;2024-01-07T04:08:13;102210.09;;;-0.92;80.48
76297;BME280;65104;52.994;6.552;2024-01-07T04:10:41;102208.91;;;-0.97;79.82
76297;BME280;65104;52.994;6.552;2024-01-07T04:13:08;102208.38;;;-0.92;80.01
76297;BME280;65104;52.994;6.552;2024-01-07T04:15:34;102206.88;;;-0.88;80.13
76297;BME280;65104;52.994;6.552;2024-01-07T04:18:01;102211.19;;;-0.89;80.18
76297;BME280;65104;52.994;6.552;2024-01-07T04:20:29;102207.50;;;-0.92;80.34
76297;BME280;65104;52.994;6.552;2024-01-07T04:22:55;102213.78;;;-0.89;79.78
76297;BME280;65104;52.994;6.552;2024-01-07T04:25:23;102226.66;;;-0.90;79.71
76297;BME280;65104;52.994;6.552;2024-01-07T04:27:50;102221.34;;;-0.92;79.38
76297;BME280;65104;52.994;6.552;2024-01-07T04:30:17;102225.47;;;-0.95;79.35
76297;BME280;65104;52.994;6.552;2024-01-07T04:32:44;102221.28;;;-0.93;79.21
76297;BME280;65104;52.994;6.552;2024-01-07T04:35:10;102230.94;;;-0.91;78.80
76297;BME280;65104;52.994;6.552;2024-01-07T04:37:37;102231.66;;;-0.93;79.04
76297;BME280;65104;52.994;6.552;2024-01-07T04:40:05;102239.72;;;-0.89;79.05
76297;BME280;65104;52.994;6.552;2024-01-07T04:42:33;102243.03;;;-0.91;77.72
76297;BME280;65104;52.994;6.552;2024-01-07T04:45:00;102235.53;;;-0.87;79.14
76297;BME280;65104;52.994;6.552;2024-01-07T04:47:29;102244.47;;;-0.81;78.27
76297;BME280;65104;52.994;6.552;2024-01-07T04:49:56;102251.97;;;-0.86;78.43
76297;BME280;65104;52.994;6.552;2024-01-07T04:52:24;102249.47;;;-0.84;77.64
76297;BME280;65104;52.994;6.552;2024-01-07T04:54:51;102255.47;;;-0.86;78.01
76297;BME280;65104;52.994;6.552;2024-01-07T04:57:18;102255.28;;;-0.89;78.46
76297;BME280;65104;52.994;6.552;2024-01-07T04:59:46;102261.47;;;-0.87;77.88
76297;BME280;65104;52.994;6.552;2024-01-07T05:02:13;102261.47;;;-0.87;77.39
76297;BME280;65104;52.994;6.552;2024-01-07T05:04:41;102266.66;;;-0.87;77.08
76297;BME280;65104;52.994;6.552;2024-01-07T05:07:07;102277.28;;;-0.82;78.29
76297;BME280;65104;52.994;6.552;2024-01-07T05:09:34;102279.28;;;-0.78;77.69
76297;BME280;65104;52.994;6.552;2024-01-07T05:12:01;102286.00;;;-0.81;77.05
76297;BME280;65104;52.994;6.552;2024-01-07T05:14:28;102282.41;;;-0.83;77.09
76297;BME280;65104;52.994;6.552;2024-01-07T05:16:56;102293.56;;;-0.84;76.70
76297;BME280;65104;52.994;6.552;2024-01-07T05:19:22;102293.78;;;-0.81;77.15
76297;BME280;65104;52.994;6.552;2024-01-07T05:21:49;102301.75;;;-0.78;77.13
76297;BME280;65104;52.994;6.552;2024-01-07T05:24:15;102305.06;;;-0.81;76.96
76297;BME280;65104;52.994;6.552;2024-01-07T05:26:43;102299.56;;;-0.86;75.98
76297;BME280;65104;52.994;6.552;2024-01-07T05:29:10;102306.81;;;-0.80;75.70
76297;BME280;65104;52.994;6.552;2024-01-07T05:31:37;102317.41;;;-0.77;75.39
76297;BME280;65104;52.994;6.552;2024-01-07T05:34:05;102320.50;;;-0.82;75.37
76297;BME280;65104;52.994;6.552;2024-01-07T05:36:32;102318.72;;;-0.83;75.81
76297;BME280;65104;52.994;6.552;2024-01-07T05:38:58;102329.13;;;-0.83;75.81
76297;BME280;65104;52.994;6.552;2024-01-07T05:41:25;102329.72;;;-0.88;74.60
76297;BME280;65104;52.994;6.552;2024-01-07T05:43:51;102334.47;;;-0.80;75.50
76297;BME280;65104;52.994;6.552;2024-01-07T05:46:18;102337.19;;;-0.79;75.32
76297;BME280;65104;52.994;6.552;2024-01-07T05:48:45;102340.56;;;-0.80;75.54
76297;BME280;65104;52.994;6.552;2024-01-07T05:51:15;102351.28;;;-0.89;74.49
76297;BME280;65104;52.994;6.552;2024-01-07T05:53:42;102359.78;;;-0.91;75.19
76297;BME280;65104;52.994;6.552;2024-01-07T05:56:09;102352.69;;;-0.94;74.89
76297;BME280;65104;52.994;6.552;2024-01-07T05:58:36;102363.97;;;-0.93;74.95
76297;BME280;65104;52.994;6.552;2024-01-07T06:01:03;102378.91;;;-0.89;75.35
76297;BME280;65104;52.994;6.552;2024-01-07T06:03:30;102367.75;;;-0.88;74.67
76297;BME280;65104;52.994;6.552;2024-01-07T06:05:57;102374.53;;;-0.90;74.48
76297;BME280;65104;52.994;6.552;2024-01-07T06:08:25;102378.13;;;-0.88;75.04
76297;BME280;65104;52.994;6.552;2024-01-07T06:10:52;102382.41;;;-0.89;74.85
76297;BME280;65104;52.994;6.552;2024-01-07T06:13:19;102395.69;;;-0.84;75.15
76297;BME280;65104;52.994;6.552;2024-01-07T06:15:45;102391.09;;;-0.88;74.15
76297;BME280;65104;52.994;6.552;2024-01-07T06:18:12;102396.28;;;-0.88;74.89
76297;BME280;65104;52.994;6.552;2024-01-07T06:20:39;102398.28;;;-0.84;75.36
76297;BME280;65104;52.994;6.552;2024-01-07T06:23:05;102404.19;;;-0.87;75.03
76297;BME280;65104;52.994;6.552;2024-01-07T06:25:33;102399.94;;;-0.84;74.70
76297;BME280;65104;52.994;6.552;2024-01-07T06:28:00;102405.25;;;-0.83;75.20
76297;BME280;65104;52.994;6.552;2024-01-07T06:30:27;102417.34;;;-0.83;74.81
76297;BME280;65104;52.994;6.552;2024-01-07T06:32:53;102417.22;;;-0.85;74.03
76297;BME280;65104;52.994;6.552;2024-01-07T06:35:20;102416.16;;;-0.89;74.89
76297;BME280;65104;52.994;6.552;2024-01-07T06:37:47;102435.31;;;-0.87;74.51
76297;BME280;65104;52.994;6.552;2024-01-07T06:40:13;102423.13;;;-0.88;74.52
76297;BME280;65104;52.994;6.552;2024-01-07T06:42:41;102430.78;;;-0.89;74.75
76297;BME280;65104;52.994;6.552;2024-01-07T06:45:09;102437.09;;;-0.86;74.71
76297;BME280;65104;52.994;6.552;2024-01-07T06:47:36;102442.28;;;-0.86;74.31
76297;BME280;65104;52.994;6.552;2024-01-07T06:50:03;102442.38;;;-0.84;74.18
76297;BME280;65104;52.994;6.552;2024-01-07T06:52:30;102444.75;;;-0.87;73.76
76297;BME280;65104;52.994;6.552;2024-01-07T06:54:56;102448.06;;;-0.90;74.98
76297;BME280;65104;52.994;6.552;2024-01-07T06:57:23;102451.66;;;-0.88;75.04
76297;BME280;65104;52.994;6.552;2024-01-07T06:59:51;102452.56;;;-0.87;74.14
76297;BME280;65104;52.994;6.552;2024-01-07T07:02:19;102456.84;;;-0.88;74.89
76297;BME280;65104;52.994;6.552;2024-01-07T07:04:46;102461.94;;;-0.89;74.64
76297;BME280;65104;52.994;6.552;2024-01-07T07:07:13;102459.34;;;-0.89;74.46
76297;BME280;65104;52.994;6.552;2024-01-07T07:09:39;102459.06;;;-0.94;75.03
76297;BME280;65104;52.994;6.552;2024-01-07T07:12:06;102468.75;;;-0.91;74.37
76297;BME280;65104;52.994;6.552;2024-01-07T07:14:33;102468.81;;;-0.90;74.77
76297;BME280;65104;52.994;6.552;2024-01-07T07:17:01;102483.38;;;-0.92;74.30
76297;BME280;65104;52.994;6.552;2024-01-07T07:19:28;102484.00;;;-0.96;74.19
76297;BME280;65104;52.994;6.552;2024-01-07T07:21:55;102496.28;;;-0.93;74.89
76297;BME280;65104;52.994;6.552;2024-01-07T07:24:22;102491.09;;;-0.93;74.73
76297;BME280;65104;52.994;6.552;2024-01-07T07:26:49;102488.28;;;-0.96;74.10
76297;BME280;65104;52.994;6.552;2024-01-07T07:29:15;102512.53;;;-0.96;74.60
76297;BME280;65104;52.994;6.552;2024-01-07T07:31:42;102499.47;;;-0.97;74.36
76297;BME280;65104;52.994;6.552;2024-01-07T07:34:10;102507.25;;;-0.97;74.18
76297;BME280;65104;52.994;6.552;2024-01-07T07:36:37;102519.13;;;-1.01;73.72
76297;BME280;65104;52.994;6.552;2024-01-07T07:39:05;102525.59;;;-0.94;74.49
76297;BME280;65104;52.994;6.552;2024-01-07T07:41:31;102531.47;;;-0.97;74.10
76297;BME280;65104;52.994;6.552;2024-01-07T07:43:58;102539.28;;;-0.97;74.28
76297;BME280;65104;52.994;6.552;2024-01-07T07:46:25;102542.56;;;-0.99;73.95
76297;BME280;65104;52.994;6.552;2024-01-07T07:48:51;102550.03;;;-1.04;74.13
76297;BME280;65104;52.994;6.552;2024-01-07T07:51:19;102556.94;;;-1.04;73.79
76297;BME280;65104;52.994;6.552;2024-01-07T07:53:46;102560.09;;;-1.09;73.18
76297;BME280;65104;52.994;6.552;2024-01-07T07:56:12;102566.38;;;-1.18;73.90
76297;BME280;65104;52.994;6.552;2024-01-07T07:58:39;102586.13;;;-1.20;73.64
76297;BME280;65104;52.994;6.552;2024-01-07T08:01:05;102583.31;;;-1.23;73.30
76297;BME280;65104;52.994;6.552;2024-01-07T08:03:32;102592.38;;;-1.30;73.64
76297;BME280;65104;52.994;6.552;2024-01-07T08:06:00;102588.50;;;-1.37;74.03
76297;BME280;65104;52.994;6.552;2024-01-07T08:08:28;102599.56;;;-1.39;73.84
76297;BME280;65104;52.994;6.552;2024-01-07T08:10:54;102595.06;;;-1.42;73.87
76297;BME280;65104;52.994;6.552;2024-01-07T08:13:21;102606.31;;;-1.41;74.41
76297;BME280;65104;52.994;6.552;2024-01-07T08:15:48;102608.78;;;-1.43;74.27
76297;BME280;65104;52.994;6.552;2024-01-07T08:18:14;102609.47;;;-1.45;74.28
76297;BME280;65104;52.994;6.552;2024-01-07T08:20:41;102618.28;;;-1.43;74.37
76297;BME280;65104;52.994;6.552;2024-01-07T08:23:08;102617.16;;;-1.47;74.93
76297;BME280;65104;52.994;6.552;2024-01-07T08:25:37;102628.31;;;-1.48;74.26
76297;BME280;65104;52.994;6.552;2024-01-07T08:28:03;102626.75;;;-1.46;74.21
76297;BME280;65104;52.994;6.552;2024-01-07T08:30:30;102630.91;;;-1.48;74.07
76297;BME280;65104;52.994;6.552;2024-01-07T08:32:57;102636.28;;;-1.45;74.47
76297;BME280;65104;52.994;6.552;2024-01-07T08:35:23;102637.19;;;-1.44;74.21
76297;BME280;65104;52.994;6.552;2024-01-07T08:37:50;102640.97;;;-1.53;74.48
76297;BME280;65104;52.994;6.552;2024-01-07T08:40:17;102635.91;;;-1.51;74.40
76297;BME280;65104;52.994;6.552;2024-01-07T08:42:45;102643.56;;;-1.53;74.72
76297;BME280;65104;52.994;6.552;2024-01-07T08:45:12;102641.06;;;-1.51;74.57
76297;BME280;65104;52.994;6.552;2024-01-07T08:47:39;102644.69;;;-1.49;73.24
76297;BME280;65104;52.994;6.552;2024-01-07T08:50:06;102656.72;;;-1.50;73.39
76297;BME280;65104;52.994;6.552;2024-01-07T08:52:33;102648.25;;;-1.47;72.47
76297;BME280;65104;52.994;6.552;2024-01-07T08:55:00;102660.63;;;-1.43;72.52
76297;BME280;65104;52.994;6.552;2024-01-07T08:57:27;102650.06;;;-1.46;72.33
76297;BME280;65104;52.994;6.552;2024-01-07T08:59:55;102664.44;;;-1.38;72.15
76297;BME280;65104;52.994;6.552;2024-01-07T09:02:22;102657.13;;;-1.32;70.52
76297;BME280;65104;52.994;6.552;2024-01-07T09:04:48;102670.91;;;-1.19;69.97
76297;BME280;65104;52.994;6.552;2024-01-07T09:07:15;102666.38;;;-1.10;69.79
76297;BME280;65104;52.994;6.552;2024-01-07T09:09:42;102683.34;;;-1.02;69.37
76297;BME280;65104;52.994;6.552;2024-01-07T09:12:08;102678.91;;;-0.91;70.10
76297;BME280;65104;52.994;6.552;2024-01-07T09:14:37;102681.13;;;-0.84;70.23
76297;BME280;65104;52.994;6.552;2024-01-07T09:17:05;102680.13;;;-0.73;69.71
76297;BME280;65104;52.994;6.552;2024-01-07T09:19:31;102680.81;;;-0.75;70.17
76297;BME280;65104;52.994;6.552;2024-01-07T09:21:58;102685.31;;;-0.73;71.07
76297;BME280;65104;52.994;6.552;2024-01-07T09:24:24;102688.72;;;-0.74;70.89
76297;BME280;65104;52.994;6.552;2024-01-07T09:26:51;102690.00;;;-0.80;71.01
76297;BME280;65104;52.994;6.552;2024-01-07T09:29:18;102695.19;;;-0.80;71.50
76297;BME280;65104;52.994;6.552;2024-01-07T09:31:45;102694.91;;;-0.72;70.59
76297;BME280;65104;52.994;6.552;2024-01-07T09:34:13;102696.81;;;-0.69;70.66
76297;BME280;65104;52.994;6.552;2024-01-07T09:36:40;102710.06;;;-0.78;70.72
76297;BME280;65104;52.994;6.552;2024-01-07T09:39:06;102709.69;;;-0.71;71.76
76297;BME280;65104;52.994;6.552;2024-01-07T09:41:34;102719.47;;;-0.67;72.10
76297;BME280;65104;52.994;6.552;2024-01-07T09:44:01;102719.38;;;-0.68;71.42
76297;BME280;65104;52.994;6.552;2024-01-07T09:46:29;102723.97;;;-0.64;72.00
76297;BME280;65104;52.994;6.552;2024-01-07T09:48:57;102725.88;;;-0.61;71.14
76297;BME280;65104;52.994;6.552;2024-01-07T09:51:28;102719.78;;;-0.62;70.13
76297;BME280;65104;52.994;6.552;2024-01-07T09:53:58;102725.59;;;-0.53;70.11
76297;BME280;65104;52.994;6.552;2024-01-07T09:56:34;102720.03;;;-0.46;71.21
76297;BME280;65104;52.994;6.552;2024-01-07T09:59:02;102722.00;;;-0.41;71.00
76297;BME280;65104;52.994;6.552;2024-01-07T10:01:30;102730.09;;;-0.37;71.52
76297;BME280;65104;52.994;6.552;2024-01-07T10:03:57;102739.09;;;-0.32;70.42
76297;BME280;65104;52.994;6.552;2024-01-07T10:06:25;102736.03;;;-0.26;69.66
76297;BME280;65104;52.994;6.552;2024-01-07T10:08:52;102734.91;;;-0.30;69.92
76297;BME280;65104;52.994;6.552;2024-01-07T10:11:21;102734.91;;;-0.30;69.49
76297;BME280;65104;52.994;6.552;2024-01-07T10:13:47;102737.63;;;-0.28;69.52
76297;BME280;65104;52.994;6.552;2024-01-07T10:16:16;102737.63;;;-0.28;69.88
76297;BME280;65104;52.994;6.552;2024-01-07T10:18:43;102732.72;;;-0.24;69.40
76297;BME280;65104;52.994;6.552;2024-01-07T10:21:09;102744.41;;;-0.17;69.58
76297;BME280;65104;52.994;6.552;2024-01-07T10:23:37;102754.13;;;-0.14;70.01
76297;BME280;65104;52.994;6.552;2024-01-07T10:26:04;102760.53;;;-0.09;68.38
76297;BME280;65104;52.994;6.552;2024-01-07T10:28:31;102755.03;;;-0.14;67.77
76297;BME280;65104;52.994;6.552;2024-01-07T10:30:58;102753.31;;;-0.13;67.21
76297;BME280;65104;52.994;6.552;2024-01-07T10:33:24;102755.41;;;-0.08;66.94
76297;BME280;65104;52.994;6.552;2024-01-07T10:35:52;102756.41;;;-0.06;66.67
76297;BME280;65104;52.994;6.552;2024-01-07T10:38:22;102748.34;;;0.03;66.94
76297;BME280;65104;52.994;6.552;2024-01-07T10:40:52;102744.53;;;0.11;66.98
76297;BME280;65104;52.994;6.552;2024-01-07T10:43:21;102750.59;;;0.12;65.21
76297;BME280;65104;52.994;6.552;2024-01-07T10:45:48;102747.22;;;0.13;66.60
76297;BME280;65104;52.994;6.552;2024-01-07T10:48:17;102758.00;;;0.19;65.68
76297;BME280;65104;52.994;6.552;2024-01-07T10:50:45;102752.31;;;0.11;65.32
76297;BME280;65104;52.994;6.552;2024-01-07T10:53:14;102746.34;;;0.12;66.78
76297;BME280;65104;52.994;6.552;2024-01-07T10:55:46;102756.22;;;0.18;66.14
76297;BME280;65104;52.994;6.552;2024-01-07T10:58:18;102751.81;;;0.44;64.45
76297;BME280;65104;52.994;6.552;2024-01-07T11:00:46;102744.84;;;0.57;64.61
76297;BME280;65104;52.994;6.552;2024-01-07T11:03:17;102755.19;;;0.56;63.87
76297;BME280;65104;52.994;6.552;2024-01-07T11:05:52;102753.81;;;0.76;63.64
76297;BME280;65104;52.994;6.552;2024-01-07T11:08:25;102759.31;;;0.80;64.68
76297;BME280;65104;52.994;6.552;2024-01-07T11:10:57;102763.78;;;0.96;64.61
76297;BME280;65104;52.994;6.552;2024-01-07T11:13:36;102757.03;;;1.43;63.62
76297;BME280;65104;52.994;6.552;2024-01-07T11:16:04;102760.28;;;1.54;62.82
76297;BME280;65104;52.994;6.552;2024-01-07T11:18:38;102767.44;;;1.28;63.05
76297;BME280;65104;52.994;6.552;2024-01-07T11:21:05;102769.34;;;1.45;63.44
76297;BME280;65104;52.994;6.552;2024-01-07T11:23:33;102772.69;;;1.58;63.07
76297;BME280;65104;52.994;6.552;2024-01-07T11:26:03;102767.28;;;1.69;62.18
76297;BME280;65104;52.994;6.552;2024-01-07T11:28:44;102760.38;;;1.85;61.79
76297;BME280;65104;52.994;6.552;2024-01-07T11:31:11;102762.84;;;2.13;61.32
76297;BME280;65104;52.994;6.552;2024-01-07T11:33:38;102762.22;;;2.17;60.57
76297;BME280;65104;52.994;6.552;2024-01-07T11:36:05;102761.81;;;1.80;61.39
76297;BME280;65104;52.994;6.552;2024-01-07T11:38:34;102762.63;;;1.94;61.81
76297;BME280;65104;52.994;6.552;2024-01-07T11:41:00;102770.16;;;2.04;61.40
76297;BME280;65104;52.994;6.552;2024-01-07T11:43:28;102769.00;;;1.99;61.25
76297;BME280;65104;52.994;6.552;2024-01-07T11:45:56;102766.28;;;1.97;62.47
76297;BME280;65104;52.994;6.552;2024-01-07T11:48:23;102766.19;;;1.51;62.66
76297;BME280;65104;52.994;6.552;2024-01-07T11:50:49;102755.88;;;1.67;63.71
76297;BME280;65104;52.994;6.552;2024-01-07T11:53:16;102757.47;;;1.80;62.46
76297;BME280;65104;52.994;6.552;2024-01-07T11:55:44;102757.88;;;1.72;62.43
76297;BME280;65104;52.994;6.552;2024-01-07T11:58:11;102762.84;;;2.13;61.89
76297;BME280;65104;52.994;6.552;2024-01-07T12:00:37;102766.69;;;2.34;61.85
76297;BME280;65104;52.994;6.552;2024-01-07T12:03:05;102755.34;;;2.34;60.57
76297;BME280;65104;52.994;6.552;2024-01-07T12:05:32;102765.00;;;2.51;60.60
76297;BME280;65104;52.994;6.552;2024-01-07T12:08:00;102766.78;;;2.67;61.19
76297;BME280;65104;52.994;6.552;2024-01-07T12:10:28;102765.53;;;2.61;60.89
76297;BME280;65104;52.994;6.552;2024-01-07T12:12:56;102769.06;;;2.77;62.22
76297;BME280;65104;52.994;6.552;2024-01-07T12:15:22;102761.78;;;2.88;61.29
76297;BME280;65104;52.994;6.552;2024-01-07T12:17:56;102768.78;;;2.10;63.09
76297;BME280;65104;52.994;6.552;2024-01-07T12:20:25;102761.63;;;1.62;64.99
76297;BME280;65104;52.994;6.552;2024-01-07T12:22:52;102767.00;;;1.50;66.11
76297;BME280;65104;52.994;6.552;2024-01-07T12:25:21;102766.03;;;1.63;65.34
76297;BME280;65104;52.994;6.552;2024-01-07T12:27:49;102769.59;;;1.95;66.31
76297;BME280;65104;52.994;6.552;2024-01-07T12:30:19;102770.91;;;2.32;64.93
76297;BME280;65104;52.994;6.552;2024-01-07T12:32:46;102770.69;;;2.44;65.14
76297;BME280;65104;52.994;6.552;2024-01-07T12:35:11;102777.00;;;2.48;65.47
76297;BME280;65104;52.994;6.552;2024-01-07T12:37:39;102772.47;;;2.60;65.39
76297;BME280;65104;52.994;6.552;2024-01-07T12:40:07;102775.34;;;2.65;63.51
76297;BME280;65104;52.994;6.552;2024-01-07T12:42:36;102785.69;;;1.87;65.28
76297;BME280;65104;52.994;6.552;2024-01-07T12:45:06;102779.13;;;2.24;65.52
76297;BME280;65104;52.994;6.552;2024-01-07T12:47:32;102780.69;;;1.90;66.13
76297;BME280;65104;52.994;6.552;2024-01-07T12:50:00;102781.06;;;2.28;67.04
76297;BME280;65104;52.994;6.552;2024-01-07T12:52:26;102780.63;;;2.35;64.54